createdAt,value
2019-03-09T00:02:39.966Z,62.45
2019-03-09T00:05:53.841Z,62.71
2019-03-09T00:09:08.128Z,62.99
2019-03-09T00:12:21.612Z,63.19
2019-03-09T00:15:35.066Z,62.15
2019-03-09T00:18:48.532Z,62.38
2019-03-09T00:22:02.372Z,62.67
2019-03-09T00:25:23.047Z,63.02
2019-03-09T00:28:44.191Z,62.98
2019-03-09T00:32:06.224Z,63.17
2019-03-09T00:35:19.967Z,63.07
2019-03-09T00:38:33.732Z,63.56
2019-03-09T00:41:47.182Z,63.37
2019-03-09T00:45:00.650Z,62.97
2019-03-09T00:48:14.389Z,63.31
2019-03-09T00:51:27.936Z,62.76
2019-03-09T00:54:41.995Z,63.56
2019-03-09T00:57:55.466Z,63.62
2019-03-09T01:01:09.432Z,63.93
2019-03-09T01:04:22.897Z,63.77
2019-03-09T01:07:36.467Z,64.20
2019-03-09T01:10:50.036Z,64.10
2019-03-09T01:14:03.854Z,64.15
2019-03-09T01:17:17.316Z,64.60
2019-03-09T01:20:30.776Z,64.58
2019-03-09T01:23:44.242Z,64.09
2019-03-09T01:26:58.079Z,64.22
2019-03-09T01:30:16.051Z,64.81
2019-03-09T01:33:29.523Z,65.16
2019-03-09T01:36:43.254Z,65.24
2019-03-09T01:39:56.821Z,65.70
2019-03-09T01:43:10.372Z,65.68
2019-03-09T01:46:24.131Z,65.17
2019-03-09T01:49:37.695Z,65.29
2019-03-09T01:52:51.518Z,66.08
2019-03-09T01:56:05.080Z,65.76
2019-03-09T01:59:18.839Z,65.63
2019-03-09T02:02:32.411Z,65.88
2019-03-09T02:05:46.157Z,66.43
2019-03-09T02:08:59.611Z,65.89
2019-03-09T02:12:13.987Z,66.03
2019-03-09T02:15:27.557Z,66.77
2019-03-09T02:18:41.016Z,67.07
2019-03-09T02:21:54.851Z,66.87
2019-03-09T02:25:08.910Z,66.69
2019-03-09T02:28:22.364Z,67.02
2019-03-09T02:31:35.823Z,66.83
2019-03-09T02:34:49.390Z,67.37
2019-03-09T02:38:10.941Z,67.40
2019-03-09T02:41:24.607Z,67.86
2019-03-09T02:44:38.056Z,69.26
2019-03-09T02:47:51.514Z,69.86
2019-03-09T02:51:05.275Z,70.38
2019-03-09T02:54:19.076Z,70.08
2019-03-09T02:57:32.652Z,69.48
2019-03-09T03:00:49.213Z,70.12
2019-03-09T03:04:03.102Z,70.42
2019-03-09T03:07:16.650Z,71.19
2019-03-09T03:10:30.116Z,70.86
2019-03-09T03:13:43.583Z,71.25
2019-03-09T03:16:57.050Z,71.86
2019-03-09T03:20:10.520Z,72.19
2019-03-09T03:23:24.084Z,72.22
2019-03-09T03:29:50.637Z,73.54
2019-03-09T03:33:04.221Z,75.04
2019-03-09T03:36:17.773Z,76.04
2019-03-09T03:39:31.224Z,77.25
2019-03-09T03:42:45.181Z,78.69
2019-03-09T03:45:58.744Z,80.53
2019-03-09T03:49:12.218Z,81.69
2019-03-09T03:52:25.675Z,82.01
2019-03-09T03:55:39.271Z,82.63
2019-03-09T03:58:53.054Z,83.60
2019-03-09T04:02:06.735Z,83.53
2019-03-09T04:05:20.302Z,84.08
2019-03-09T04:08:33.976Z,84.31
2019-03-09T04:11:47.946Z,84.62
2019-03-09T04:15:01.646Z,84.87
2019-03-09T04:18:15.194Z,84.81
2019-03-09T04:21:28.676Z,85.04
2019-03-09T04:24:42.513Z,85.29
2019-03-09T04:27:56.084Z,84.85
2019-03-09T04:31:09.567Z,84.78
2019-03-09T04:34:23.124Z,85.35
2019-03-09T04:37:36.587Z,85.47
2019-03-09T04:40:50.046Z,85.72
2019-03-09T04:44:03.523Z,86.57
2019-03-09T04:47:16.996Z,86.74
2019-03-09T04:50:30.466Z,86.81
2019-03-09T04:53:43.945Z,86.36
2019-03-09T04:56:57.408Z,87.15
2019-03-09T05:00:11.125Z,87.21
2019-03-09T05:03:24.658Z,87.24
2019-03-09T05:06:38.139Z,86.91
2019-03-09T05:10:13.231Z,86.80
2019-03-09T05:13:32.763Z,86.69
2019-03-09T05:16:46.230Z,87.23
2019-03-09T05:19:59.731Z,87.10
2019-03-09T05:23:33.150Z,87.04
2019-03-09T05:26:46.610Z,86.98
2019-03-09T05:30:00.190Z,86.69
2019-03-09T05:33:14.176Z,86.62
2019-03-09T05:36:27.653Z,86.22
2019-03-09T05:39:41.119Z,86.28
2019-03-09T05:42:54.965Z,86.06
2019-03-09T05:46:08.434Z,86.37
2019-03-09T05:49:21.899Z,86.04
2019-03-09T05:52:36.242Z,86.22
2019-03-09T05:55:49.916Z,85.93
2019-03-09T05:59:03.587Z,85.65
2019-03-09T06:02:17.060Z,85.84
2019-03-09T06:05:32.473Z,85.87
2019-03-09T06:08:47.513Z,85.91
2019-03-09T06:12:01.079Z,85.61
2019-03-09T06:15:14.561Z,85.47
2019-03-09T06:18:28.410Z,85.87
2019-03-09T06:21:41.871Z,85.98
2019-03-09T06:24:55.321Z,86.10
2019-03-09T06:28:08.800Z,85.98
2019-03-09T06:31:22.281Z,85.87
2019-03-09T06:34:36.168Z,85.59
2019-03-09T06:37:57.283Z,85.41
2019-03-09T06:41:12.870Z,85.50
2019-03-09T06:44:26.640Z,85.33
2019-03-09T06:47:40.112Z,85.17
2019-03-09T06:50:53.889Z,85.04
2019-03-09T06:54:07.578Z,84.59
2019-03-09T06:57:21.154Z,84.48
2019-03-09T07:00:38.822Z,84.43
2019-03-09T07:03:52.419Z,83.84
2019-03-09T07:07:05.867Z,83.40
2019-03-09T07:10:19.520Z,83.25
2019-03-09T07:13:33.000Z,82.85
2019-03-09T07:16:46.463Z,82.78
2019-03-09T07:20:01.039Z,82.18
2019-03-09T07:23:14.612Z,81.43
2019-03-09T07:26:31.015Z,81.27
2019-03-09T07:29:44.826Z,80.39
2019-03-09T07:32:58.396Z,79.32
2019-03-09T07:36:12.218Z,79.12
2019-03-09T07:39:25.680Z,78.62
2019-03-09T07:42:39.412Z,78.14
2019-03-09T07:45:52.863Z,77.94
2019-03-09T07:49:06.321Z,77.23
2019-03-09T07:52:36.895Z,77.43
2019-03-09T07:55:50.599Z,77.85
2019-03-09T07:59:04.073Z,77.35
2019-03-09T08:02:17.758Z,76.18
2019-03-09T08:05:31.215Z,76.43
2019-03-09T08:08:45.046Z,76.09
2019-03-09T08:11:58.546Z,75.88
2019-03-09T08:15:14.365Z,75.96
2019-03-09T08:18:27.827Z,74.85
2019-03-09T08:21:41.577Z,74.79
2019-03-09T08:24:55.170Z,74.42
2019-03-09T08:28:08.941Z,74.15
2019-03-09T08:31:22.464Z,73.72
2019-03-09T08:34:35.917Z,73.83
2019-03-09T08:37:50.191Z,74.35
2019-03-09T08:41:03.753Z,74.75
2019-03-09T08:44:17.258Z,74.30
2019-03-09T08:47:30.741Z,75.30
2019-03-09T08:50:44.219Z,75.36
2019-03-09T08:53:58.352Z,74.98
2019-03-09T08:57:11.857Z,75.19
2019-03-09T09:00:29.994Z,75.48
2019-03-09T09:03:43.160Z,75.86
2019-03-09T09:06:56.835Z,75.31
2019-03-09T09:10:10.737Z,75.09
2019-03-09T09:13:24.607Z,74.84
2019-03-09T09:16:38.368Z,74.92
2019-03-09T09:19:51.827Z,74.86
2019-03-09T09:23:05.279Z,74.90
2019-03-09T09:26:18.747Z,75.02
2019-03-09T09:29:32.330Z,74.90
2019-03-09T09:32:45.931Z,74.28
2019-03-09T09:35:59.731Z,74.37
2019-03-09T09:39:13.190Z,74.17
2019-03-09T09:42:26.655Z,74.52
2019-03-09T09:45:40.641Z,74.53
2019-03-09T09:48:54.153Z,74.81
2019-03-09T09:52:08.407Z,74.49
2019-03-09T09:55:21.876Z,75.05
2019-03-09T09:58:37.114Z,74.29
2019-03-09T10:01:50.781Z,74.08
2019-03-09T10:05:05.067Z,73.37
2019-03-09T10:08:18.531Z,73.48
2019-03-09T10:11:32.018Z,73.04
2019-03-09T10:14:45.481Z,71.90
2019-03-09T10:17:58.951Z,71.09
2019-03-09T10:21:13.015Z,71.16
2019-03-09T10:24:26.759Z,70.82
2019-03-09T10:27:40.330Z,70.60
2019-03-09T10:30:53.902Z,70.33
2019-03-09T10:34:07.459Z,69.86
2019-03-09T10:37:21.257Z,70.00
2019-03-09T10:40:34.778Z,67.63
2019-03-09T10:43:48.654Z,68.12
2019-03-09T10:47:02.333Z,67.94
2019-03-09T10:50:15.909Z,66.98
2019-03-09T10:53:29.364Z,67.18
2019-03-09T10:56:42.860Z,66.34
2019-03-09T10:59:56.356Z,65.65
2019-03-09T11:03:09.936Z,66.21
2019-03-09T11:06:23.423Z,67.00
2019-03-09T11:09:36.893Z,66.69
2019-03-09T11:12:50.967Z,66.41
2019-03-09T11:16:04.442Z,67.42
2019-03-09T11:19:18.220Z,67.35
2019-03-09T11:22:31.774Z,69.41
2019-03-09T11:25:45.236Z,70.19
2019-03-09T11:28:58.708Z,69.63
2019-03-09T11:32:12.182Z,70.11
2019-03-09T11:35:25.653Z,71.29
2019-03-09T11:38:39.133Z,71.66
2019-03-09T11:41:52.707Z,71.27
2019-03-09T11:45:07.201Z,70.86
2019-03-09T11:48:20.684Z,71.99
2019-03-09T11:51:34.305Z,72.44
2019-03-09T11:54:47.748Z,72.71
2019-03-09T11:58:01.324Z,73.37
2019-03-09T12:01:15.182Z,73.99
2019-03-09T12:04:28.646Z,74.14
2019-03-09T12:07:42.256Z,73.81
2019-03-09T12:10:55.742Z,74.39
2019-03-09T12:14:09.418Z,75.39
2019-03-09T12:17:22.920Z,75.58
2019-03-09T12:20:36.607Z,75.80
2019-03-09T12:23:50.082Z,75.64
2019-03-09T12:27:03.962Z,75.42
2019-03-09T12:30:17.691Z,74.96
2019-03-09T12:33:31.484Z,73.91
2019-03-09T12:36:44.972Z,72.66
2019-03-09T12:39:58.438Z,72.63
2019-03-09T12:43:12.369Z,73.30
2019-03-09T12:46:26.029Z,73.08
2019-03-09T12:49:39.883Z,72.39
2019-03-09T12:52:53.463Z,72.70
2019-03-09T12:56:06.919Z,76.96
2019-03-09T12:59:20.632Z,79.21
2019-03-09T13:02:34.971Z,79.68
2019-03-09T13:05:48.563Z,80.73
2019-03-09T13:09:03.930Z,81.16
2019-03-09T13:12:17.504Z,80.62
2019-03-09T13:15:31.423Z,81.32
2019-03-09T13:18:44.998Z,80.95
2019-03-09T13:21:58.464Z,80.60
2019-03-09T13:25:12.930Z,81.06
2019-03-09T13:28:26.399Z,81.29
2019-03-09T13:31:39.955Z,79.94
2019-03-09T13:34:53.417Z,80.20
2019-03-09T13:38:06.888Z,80.15
2019-03-09T13:41:20.346Z,81.19
2019-03-09T13:44:34.086Z,82.11
2019-03-09T13:47:47.559Z,83.11
2019-03-09T13:51:01.772Z,81.48
2019-03-09T13:54:15.455Z,81.57
2019-03-09T13:57:28.913Z,82.27
2019-03-09T14:00:42.798Z,81.92
2019-03-09T14:03:56.333Z,80.08
2019-03-09T14:07:10.134Z,79.85
2019-03-09T14:10:23.718Z,78.85
2019-03-09T14:13:37.186Z,78.44
2019-03-09T14:16:51.119Z,77.83
2019-03-09T14:20:05.068Z,76.84
2019-03-09T14:23:18.873Z,76.64
2019-03-09T14:26:32.611Z,75.40
2019-03-09T14:29:46.209Z,75.51
2019-03-09T14:33:00.099Z,76.35
2019-03-09T14:36:13.623Z,75.16
2019-03-09T14:39:27.637Z,76.04
2019-03-09T14:42:41.333Z,76.43
2019-03-09T14:45:55.253Z,74.72
2019-03-09T14:49:08.775Z,74.71
2019-03-09T14:52:22.584Z,75.75
2019-03-09T14:55:36.188Z,75.39
2019-03-09T14:58:49.826Z,74.72
2019-03-09T15:02:03.606Z,71.32
2019-03-09T15:05:17.310Z,68.96
2019-03-09T15:08:30.803Z,68.60
2019-03-09T15:11:44.392Z,67.16
2019-03-09T15:14:58.090Z,66.29
2019-03-09T15:18:11.982Z,65.96
2019-03-09T15:21:25.604Z,65.60
2019-03-09T15:24:39.087Z,65.05
2019-03-09T15:27:52.683Z,66.84
2019-03-09T15:31:06.161Z,66.05
2019-03-09T15:34:20.074Z,67.16
2019-03-09T15:37:33.779Z,67.11
2019-03-09T15:40:47.358Z,66.66
2019-03-09T15:44:00.939Z,67.25
2019-03-09T15:47:14.419Z,67.55
2019-03-09T15:50:28.135Z,67.30
2019-03-09T15:53:41.672Z,67.99
2019-03-09T15:56:55.419Z,67.85
2019-03-09T16:00:12.547Z,68.02
2019-03-09T16:03:26.193Z,68.04
2019-03-09T16:06:39.801Z,67.70
2019-03-09T16:09:53.414Z,66.82
2019-03-09T16:13:06.943Z,66.88
2019-03-09T16:16:20.437Z,66.24
2019-03-09T16:19:34.118Z,66.48
2019-03-09T16:22:47.788Z,66.83
2019-03-09T16:26:01.257Z,66.93
2019-03-09T16:29:14.703Z,66.90
2019-03-09T16:32:28.174Z,66.63
2019-03-09T16:35:41.640Z,65.94
2019-03-09T16:38:55.102Z,66.27
2019-03-09T16:42:08.678Z,66.09
2019-03-09T16:45:22.154Z,64.81
2019-03-09T16:48:35.627Z,64.64
2019-03-09T16:51:49.452Z,64.59
2019-03-09T16:55:03.832Z,63.38
2019-03-09T16:58:17.411Z,63.10
2019-03-09T17:01:30.966Z,63.67
2019-03-09T17:04:44.730Z,63.62
2019-03-09T17:07:58.525Z,63.77
2019-03-09T17:11:12.018Z,64.10
2019-03-09T17:14:25.801Z,63.39
2019-03-09T17:17:39.268Z,64.21
2019-03-09T17:20:52.730Z,64.88
2019-03-09T17:24:06.487Z,64.25
2019-03-09T17:27:19.946Z,63.78
2019-03-09T17:30:33.420Z,64.05
2019-03-09T17:33:47.028Z,63.59
2019-03-09T17:37:00.502Z,63.02
2019-03-09T17:40:14.455Z,62.88
2019-03-09T17:43:28.187Z,62.96
2019-03-09T17:46:41.653Z,62.67
2019-03-09T17:49:55.219Z,61.76
2019-03-09T17:53:08.968Z,61.75
2019-03-09T17:56:22.415Z,61.70
2019-03-09T17:59:35.882Z,62.64
2019-03-09T18:02:49.471Z,62.31
2019-03-09T18:06:03.032Z,63.46
2019-03-09T18:09:16.510Z,63.10
2019-03-09T18:12:29.957Z,62.96
2019-03-09T18:15:43.484Z,63.31
2019-03-09T18:18:57.005Z,63.51
2019-03-09T18:22:10.686Z,63.63
2019-03-09T18:25:24.268Z,64.15
2019-03-09T18:28:37.824Z,64.08
2019-03-09T18:31:51.324Z,63.80
2019-03-09T18:35:05.383Z,64.22
2019-03-09T18:38:18.851Z,63.93
2019-03-09T18:41:32.318Z,63.99
2019-03-09T18:44:45.895Z,64.15
2019-03-09T18:47:59.359Z,64.56
2019-03-09T18:51:12.928Z,65.27
2019-03-09T18:54:26.386Z,64.99
2019-03-09T18:57:39.953Z,65.24
2019-03-09T19:00:53.426Z,65.47
2019-03-09T19:04:07.016Z,65.23
2019-03-09T19:07:20.473Z,65.24
2019-03-09T19:10:34.266Z,64.97
2019-03-09T19:13:47.725Z,65.15
2019-03-09T19:17:01.186Z,65.65
2019-03-09T19:20:14.856Z,65.60
2019-03-09T19:23:28.307Z,66.02
2019-03-09T19:26:41.780Z,65.97
2019-03-09T19:29:55.354Z,66.60
2019-03-09T19:33:08.816Z,67.05
2019-03-09T19:36:22.369Z,67.30
2019-03-09T19:39:35.839Z,67.12
2019-03-09T19:42:49.506Z,67.69
2019-03-09T19:46:03.184Z,67.95
2019-03-09T19:49:16.652Z,67.88
2019-03-09T19:52:30.098Z,68.20
2019-03-09T19:55:43.570Z,68.03
2019-03-09T19:58:57.040Z,67.83
2019-03-09T20:02:10.612Z,68.19
2019-03-09T20:05:24.099Z,67.74
2019-03-09T20:08:37.558Z,67.32
2019-03-09T20:11:51.354Z,67.94
2019-03-09T20:15:06.315Z,67.35
2019-03-09T20:18:19.764Z,67.42
2019-03-09T20:21:33.270Z,67.01
2019-03-09T20:24:46.718Z,67.06
2019-03-09T20:28:00.209Z,67.03
2019-03-09T20:31:13.779Z,67.16
2019-03-09T20:34:27.242Z,67.50
2019-03-09T20:37:40.887Z,67.36
2019-03-09T20:40:54.662Z,67.43
2019-03-09T20:44:08.161Z,67.30
2019-03-09T20:47:21.615Z,67.45
2019-03-09T20:50:35.073Z,67.80
2019-03-09T20:53:48.648Z,68.26
2019-03-09T20:57:02.281Z,68.27
2019-03-09T21:00:16.020Z,68.61
2019-03-09T21:03:29.506Z,68.42
2019-03-09T21:06:42.977Z,68.80
2019-03-09T21:09:56.709Z,69.21
2019-03-09T21:13:10.703Z,69.68
2019-03-09T21:16:24.567Z,69.43
2019-03-09T21:19:38.548Z,68.95
2019-03-09T21:22:52.206Z,68.76
2019-03-09T21:26:05.660Z,68.43
2019-03-09T21:29:19.129Z,68.37
2019-03-09T21:32:32.591Z,68.19
2019-03-09T21:35:46.353Z,68.12
2019-03-09T21:38:59.848Z,68.54
2019-03-09T21:42:13.418Z,68.92
2019-03-09T21:45:27.078Z,69.01
2019-03-09T21:48:40.564Z,69.55
2019-03-09T21:51:54.010Z,70.41
2019-03-09T21:55:08.887Z,70.39
2019-03-09T21:58:22.348Z,70.38
2019-03-09T22:01:35.985Z,71.17
2019-03-09T22:04:49.528Z,71.45
2019-03-09T22:08:03.036Z,71.02
2019-03-09T22:11:16.657Z,71.67
2019-03-09T22:14:30.120Z,71.79
2019-03-09T22:17:43.591Z,71.90
2019-03-09T22:20:57.040Z,71.50
2019-03-09T22:24:10.511Z,71.72
2019-03-09T22:27:23.995Z,71.24
2019-03-09T22:30:37.435Z,71.48
2019-03-09T22:33:50.903Z,72.07
2019-03-09T22:37:04.698Z,72.53
2019-03-09T22:40:18.162Z,72.91
2019-03-09T22:43:31.634Z,72.72
2019-03-09T22:46:45.458Z,72.68
2019-03-09T22:49:58.932Z,72.64
2019-03-09T22:53:12.389Z,72.28
2019-03-09T22:56:25.843Z,72.53
2019-03-09T22:59:39.314Z,72.73
2019-03-09T23:02:52.996Z,72.56
2019-03-09T23:06:06.751Z,72.23
2019-03-09T23:09:20.325Z,72.22
2019-03-09T23:12:33.879Z,71.89
2019-03-09T23:15:47.348Z,71.93
2019-03-09T23:19:01.019Z,71.83
2019-03-09T23:22:14.467Z,71.81
2019-03-09T23:25:28.031Z,71.91
2019-03-09T23:28:46.335Z,71.67
2019-03-09T23:32:00.047Z,71.06
2019-03-09T23:35:14.125Z,70.80
2019-03-09T23:38:27.562Z,70.24
2019-03-09T23:41:41.030Z,70.04
2019-03-09T23:44:54.968Z,70.01
2019-03-09T23:48:08.454Z,69.55
2019-03-09T23:51:21.994Z,69.98
2019-03-09T23:54:35.688Z,70.02
2019-03-09T23:57:49.343Z,70.21
